createdAt,value
2022-11-01T00:01:43.389Z,100873.00
2022-11-01T00:04:40.492Z,100863.50
2022-11-01T00:07:37.534Z,100869.84
2022-11-01T00:10:34.584Z,100861.84
2022-11-01T00:13:31.751Z,100867.13
2022-11-01T00:16:28.422Z,100873.66
2022-11-01T00:19:25.726Z,100866.81
2022-11-01T00:22:22.676Z,100869.34
2022-11-01T00:25:19.836Z,100868.13
2022-11-01T00:28:16.549Z,100860.25
2022-11-01T00:31:14.601Z,100859.28
2022-11-01T00:34:11.798Z,100859.81
2022-11-01T00:37:08.718Z,100855.75
2022-11-01T00:40:06.315Z,100854.88
2022-11-01T00:43:03.522Z,100842.81
2022-11-01T00:46:00.799Z,100846.16
2022-11-01T00:48:57.596Z,100837.06
2022-11-01T00:51:54.670Z,100836.78
2022-11-01T00:54:51.416Z,100841.31
2022-11-01T00:57:48.495Z,100837.28
2022-11-01T01:00:45.624Z,100832.66
2022-11-01T01:03:42.279Z,100827.47
2022-11-01T01:06:39.716Z,100821.28
2022-11-01T01:09:36.754Z,100823.00
2022-11-01T01:12:33.234Z,100830.72
2022-11-01T01:15:30.763Z,100826.69
2022-11-01T01:18:27.595Z,100825.97
2022-11-01T01:21:24.222Z,100828.50
2022-11-01T01:24:21.538Z,100826.16
2022-11-01T01:27:18.449Z,100830.06
2022-11-01T01:30:15.633Z,100821.94
2022-11-01T01:36:14.427Z,100817.13
2022-11-01T01:39:11.877Z,100808.31
2022-11-01T01:42:20.476Z,100801.84
2022-11-01T01:45:36.565Z,100784.00
2022-11-01T01:48:33.704Z,100783.25
2022-11-01T01:51:30.650Z,100771.88
2022-11-01T01:54:27.456Z,100766.06
2022-11-01T01:57:25.326Z,100751.03
2022-11-01T02:00:22.590Z,100749.41
2022-11-01T02:03:19.809Z,100759.47
2022-11-01T02:06:21.251Z,100759.88
2022-11-01T02:09:18.707Z,100763.50
2022-11-01T02:12:15.482Z,100754.44
2022-11-01T02:15:13.658Z,100744.69
2022-11-01T02:18:46.897Z,100733.47
2022-11-01T02:21:46.356Z,100719.69
2022-11-01T02:25:21.226Z,100718.59
2022-11-01T02:28:37.355Z,100725.81
2022-11-01T02:31:59.747Z,100722.50
2022-11-01T02:35:35.198Z,100723.09
2022-11-01T02:38:42.243Z,100721.34
2022-11-01T02:41:43.102Z,100723.94
2022-11-01T02:44:43.013Z,100720.25
2022-11-01T02:47:40.736Z,100711.16
2022-11-01T02:50:42.400Z,100707.25
2022-11-01T02:53:39.892Z,100711.38
2022-11-01T02:56:37.795Z,100702.78
2022-11-01T02:59:48.094Z,100704.91
2022-11-01T03:02:45.536Z,100706.56
2022-11-01T03:05:48.700Z,100702.50
2022-11-01T03:08:54.979Z,100704.59
2022-11-01T03:11:57.699Z,100702.56
2022-11-01T03:15:00.470Z,100693.19
2022-11-01T03:18:02.413Z,100689.22
2022-11-01T03:21:16.622Z,100687.25
2022-11-01T03:24:19.814Z,100673.97
2022-11-01T03:27:19.925Z,100674.19
2022-11-01T03:30:17.006Z,100675.44
2022-11-01T03:33:14.244Z,100688.16
2022-11-01T03:36:14.736Z,100695.97
2022-11-01T03:39:47.380Z,100692.00
2022-11-01T03:42:46.245Z,100694.72
2022-11-01T03:45:43.689Z,100704.38
2022-11-01T03:48:41.045Z,100705.00
2022-11-01T03:51:37.540Z,100713.09
2022-11-01T03:54:34.959Z,100707.53
2022-11-01T03:57:31.685Z,100711.63
2022-11-01T04:00:31.067Z,100708.69
2022-11-01T04:03:27.449Z,100711.06
2022-11-01T04:06:24.643Z,100716.06
2022-11-01T04:09:21.936Z,100730.72
2022-11-01T04:12:18.963Z,100720.13
2022-11-01T04:15:34.746Z,100709.16
2022-11-01T04:18:50.373Z,100708.34
2022-11-01T04:21:47.838Z,100712.50
2022-11-01T04:24:44.524Z,100708.66
2022-11-01T04:27:41.583Z,100712.28
2022-11-01T04:30:38.929Z,100710.72
2022-11-01T04:33:35.491Z,100718.22
2022-11-01T04:36:33.292Z,100716.50
2022-11-01T04:39:30.991Z,100713.97
2022-11-01T04:42:27.866Z,100716.41
2022-11-01T04:45:25.007Z,100717.97
2022-11-01T04:48:21.950Z,100718.84
2022-11-01T04:51:18.486Z,100724.25
2022-11-01T04:54:16.220Z,100724.84
2022-11-01T04:57:23.017Z,100708.91
2022-11-01T05:00:19.851Z,100710.41
2022-11-01T05:03:16.866Z,100710.91
2022-11-01T05:06:13.796Z,100705.50
2022-11-01T05:09:10.661Z,100717.81
2022-11-01T05:12:08.024Z,100704.81
2022-11-01T05:15:05.579Z,100717.94
2022-11-01T05:18:03.482Z,100721.59
2022-11-01T05:21:00.602Z,100727.19
2022-11-01T05:23:57.622Z,100735.94
2022-11-01T05:26:54.739Z,100731.44
2022-11-01T05:29:51.668Z,100727.00
2022-11-01T05:32:48.895Z,100743.00
2022-11-01T05:35:45.756Z,100745.50
2022-11-01T05:38:43.320Z,100742.25
2022-11-01T05:41:41.224Z,100747.59
2022-11-01T05:44:38.584Z,100747.22
2022-11-01T05:47:35.916Z,100757.41
2022-11-01T05:50:32.984Z,100759.13
2022-11-01T05:53:30.973Z,100756.28
2022-11-01T05:56:27.778Z,100757.91
2022-11-01T05:59:24.707Z,100763.59
2022-11-01T06:02:21.783Z,100780.06
2022-11-01T06:05:18.878Z,100780.06
2022-11-01T06:08:16.344Z,100779.25
2022-11-01T06:11:13.751Z,100780.06
2022-11-01T06:14:11.296Z,100779.22
2022-11-01T06:17:12.736Z,100784.56
2022-11-01T06:20:11.369Z,100787.88
2022-11-01T06:23:09.989Z,100797.66
2022-11-01T06:26:07.033Z,100793.41
2022-11-01T06:29:03.875Z,100803.63
2022-11-01T06:32:03.158Z,100804.91
2022-11-01T06:35:00.496Z,100820.81
2022-11-01T06:38:04.641Z,100822.16
2022-11-01T06:41:02.238Z,100820.03
2022-11-01T06:44:02.695Z,100822.50
2022-11-01T06:46:59.921Z,100836.38
2022-11-01T06:49:56.785Z,100837.59
2022-11-01T06:52:58.999Z,100844.69
2022-11-01T06:55:57.999Z,100849.59
2022-11-01T06:58:55.125Z,100846.31
2022-11-01T07:01:54.839Z,100861.78
2022-11-01T07:04:51.851Z,100872.44
2022-11-01T07:07:48.665Z,100864.25
2022-11-01T07:10:45.939Z,100876.13
2022-11-01T07:13:43.177Z,100871.59
2022-11-01T07:16:40.244Z,100862.56
2022-11-01T07:19:37.978Z,100884.59
2022-11-01T07:22:34.705Z,100898.03
2022-11-01T07:25:32.269Z,100900.09
2022-11-01T07:28:31.195Z,100902.78
2022-11-01T07:31:27.756Z,100916.63
2022-11-01T07:34:24.889Z,100904.75
2022-11-01T07:37:22.093Z,100902.38
2022-11-01T07:40:19.137Z,100911.28
2022-11-01T07:43:17.405Z,100920.06
2022-11-01T07:46:14.754Z,100922.94
2022-11-01T07:49:12.121Z,100940.50
2022-11-01T07:52:09.593Z,100940.41
2022-11-01T07:55:07.740Z,100949.69
2022-11-01T07:58:05.554Z,100953.66
2022-11-01T08:01:02.787Z,100953.88
2022-11-01T08:03:59.756Z,100971.41
2022-11-01T08:06:57.165Z,100964.53
2022-11-01T08:09:54.141Z,100981.06
2022-11-01T08:12:50.990Z,100967.59
2022-11-01T08:15:48.529Z,100983.06
2022-11-01T08:18:46.178Z,100990.81
2022-11-01T08:21:42.829Z,100990.00
2022-11-01T08:24:39.886Z,100985.97
2022-11-01T08:27:36.848Z,100984.25
2022-11-01T08:30:33.828Z,100992.78
2022-11-01T08:33:31.057Z,100997.00
2022-11-01T08:36:28.104Z,101002.22
2022-11-01T08:39:25.893Z,101012.59
2022-11-01T08:42:23.252Z,101017.56
2022-11-01T08:45:20.579Z,101020.97
2022-11-01T08:48:17.999Z,101024.75
2022-11-01T08:51:15.333Z,101026.50
2022-11-01T08:54:12.859Z,101018.63
2022-11-01T08:57:09.874Z,101028.41
2022-11-01T09:00:07.544Z,101024.91
2022-11-01T09:03:05.059Z,101040.97
2022-11-01T09:06:02.155Z,101047.38
2022-11-01T09:08:59.304Z,101025.28
2022-11-01T09:11:56.213Z,101041.75
2022-11-01T09:14:53.172Z,101051.22
2022-11-01T09:17:50.098Z,101045.38
2022-11-01T09:20:53.661Z,101041.31
2022-11-01T09:23:51.173Z,101058.97
2022-11-01T09:26:47.891Z,101052.00
2022-11-01T09:29:47.950Z,101044.56
2022-11-01T09:32:48.063Z,101049.81
2022-11-01T09:35:52.136Z,101062.50
2022-11-01T09:38:51.603Z,101071.50
2022-11-01T09:42:18.894Z,101072.75
2022-11-01T09:45:23.803Z,101075.28
2022-11-01T09:48:21.055Z,101088.00
2022-11-01T09:51:22.921Z,101090.00
2022-11-01T09:54:23.240Z,101101.06
2022-11-01T09:57:22.651Z,101099.41
2022-11-01T10:00:20.265Z,101096.22
2022-11-01T10:03:22.710Z,101116.59
2022-11-01T10:06:47.857Z,101099.91
2022-11-01T10:09:52.852Z,101099.41
2022-11-01T10:13:20.486Z,101099.56
2022-11-01T10:16:29.986Z,101107.53
2022-11-01T10:19:33.217Z,101122.53
2022-11-01T10:22:34.266Z,101126.44
2022-11-01T10:25:33.047Z,101120.50
2022-11-01T10:28:49.691Z,101136.06
2022-11-01T10:31:48.584Z,101137.81
2022-11-01T10:34:46.159Z,101151.38
2022-11-01T10:37:57.453Z,101162.53
2022-11-01T10:41:09.855Z,101142.97
2022-11-01T10:44:11.750Z,101150.41
2022-11-01T10:47:15.360Z,101147.94
2022-11-01T10:50:11.974Z,101160.75
2022-11-01T10:53:11.680Z,101172.59
2022-11-01T10:56:10.083Z,101159.34
2022-11-01T10:59:10.177Z,101150.13
2022-11-01T11:02:24.900Z,101180.19
2022-11-01T11:05:23.058Z,101144.38
2022-11-01T11:08:22.756Z,101140.50
2022-11-01T11:11:40.787Z,101134.75
2022-11-01T11:14:38.156Z,101147.06
2022-11-01T11:17:36.187Z,101165.13
2022-11-01T11:20:34.849Z,101173.69
2022-11-01T11:23:36.286Z,101179.84
2022-11-01T11:26:38.865Z,101174.88
2022-11-01T11:29:41.099Z,101177.78
2022-11-01T11:32:42.099Z,101171.25
2022-11-01T11:35:40.122Z,101191.13
2022-11-01T11:38:47.835Z,101179.28
2022-11-01T11:41:47.225Z,101182.34
2022-11-01T11:44:51.946Z,101172.06
2022-11-01T11:47:53.173Z,101154.81
2022-11-01T11:50:49.839Z,101163.78
2022-11-01T11:54:18.053Z,101155.53
2022-11-01T11:57:18.293Z,101146.59
2022-11-01T12:00:21.642Z,101161.16
2022-11-01T12:03:19.245Z,101175.09
2022-11-01T12:06:24.032Z,101166.44
2022-11-01T12:09:46.641Z,101205.06
2022-11-01T12:12:45.470Z,101208.22
2022-11-01T12:15:42.939Z,101176.72
2022-11-01T12:18:59.915Z,101162.81
2022-11-01T12:21:58.459Z,101149.31
2022-11-01T12:24:55.039Z,101161.38
2022-11-01T12:27:58.879Z,101171.66
2022-11-01T12:30:58.296Z,101158.94
2022-11-01T12:33:54.935Z,101185.59
2022-11-01T12:37:14.461Z,101177.59
2022-11-01T12:40:12.021Z,101187.47
2022-11-01T12:43:28.474Z,101210.13
2022-11-01T12:46:39.443Z,101191.63
2022-11-01T12:49:55.816Z,101206.09
2022-11-01T12:53:08.189Z,101207.97
2022-11-01T12:56:05.449Z,101204.69
2022-11-01T12:59:02.306Z,101216.88
2022-11-01T13:02:08.271Z,101212.38
2022-11-01T13:05:55.286Z,101221.28
2022-11-01T13:09:33.965Z,101228.19
2022-11-01T13:12:34.377Z,101256.56
2022-11-01T13:15:48.716Z,101250.81
2022-11-01T13:18:54.136Z,101278.25
2022-11-01T13:21:55.023Z,101304.97
2022-11-01T13:25:06.389Z,101304.13
2022-11-01T13:28:08.934Z,101294.22
2022-11-01T13:31:30.896Z,101274.56
2022-11-01T13:35:16.034Z,101250.88
2022-11-01T13:38:19.320Z,101247.63
2022-11-01T13:41:19.837Z,101246.00
2022-11-01T13:44:19.566Z,101231.22
2022-11-01T13:51:03.752Z,101252.31
2022-11-01T13:54:01.219Z,101243.59
2022-11-01T13:57:12.309Z,101258.66
2022-11-01T14:00:35.940Z,101247.88
2022-11-01T14:03:33.613Z,101262.50
2022-11-01T14:06:36.691Z,101254.81
2022-11-01T14:09:40.395Z,101294.41
2022-11-01T14:12:36.896Z,101280.06
2022-11-01T14:15:36.742Z,101265.50
2022-11-01T14:19:02.792Z,101268.25
2022-11-01T14:22:00.711Z,101288.47
2022-11-01T14:25:24.408Z,101281.03
2022-11-01T14:28:21.286Z,101286.94
2022-11-01T14:31:19.351Z,101288.44
2022-11-01T14:34:28.105Z,101278.81
2022-11-01T14:37:35.624Z,101263.47
2022-11-01T14:40:57.536Z,101267.72
2022-11-01T14:43:56.471Z,101262.81
2022-11-01T14:46:54.556Z,101258.63
2022-11-01T14:49:52.455Z,101272.75
2022-11-01T14:52:58.420Z,101272.84
2022-11-01T14:56:12.620Z,101258.19
2022-11-01T14:59:12.987Z,101261.69
2022-11-01T15:02:10.369Z,101288.59
2022-11-01T15:05:16.842Z,101279.38
2022-11-01T15:08:30.938Z,101290.22
2022-11-01T15:11:32.776Z,101300.91
2022-11-01T15:14:43.062Z,101278.59
2022-11-01T15:17:40.465Z,101267.66
2022-11-01T15:20:39.274Z,101289.97
2022-11-01T15:23:37.265Z,101290.09
2022-11-01T15:26:34.468Z,101297.59
2022-11-01T15:29:31.944Z,101281.19
2022-11-01T15:32:30.862Z,101283.28
2022-11-01T15:35:28.341Z,101284.56
2022-11-01T15:38:24.917Z,101275.47
2022-11-01T15:41:27.374Z,101295.34
2022-11-01T15:44:25.725Z,101281.28
2022-11-01T15:47:26.207Z,101269.09
2022-11-01T15:50:23.237Z,101295.72
2022-11-01T15:53:22.366Z,101291.66
2022-11-01T15:56:23.972Z,101285.66
2022-11-01T15:59:31.132Z,101290.44
2022-11-01T16:02:35.379Z,101289.53
2022-11-01T16:05:35.480Z,101294.66
2022-11-01T16:08:35.538Z,101304.06
2022-11-01T16:11:32.688Z,101319.75
2022-11-01T16:14:37.303Z,101324.91
2022-11-01T16:17:40.310Z,101322.22
2022-11-01T16:20:40.454Z,101321.94
2022-11-01T16:23:37.167Z,101316.69
2022-11-01T16:26:34.292Z,101326.78
2022-11-01T16:29:38.503Z,101334.88
2022-11-01T16:32:36.093Z,101334.88
2022-11-01T16:35:35.419Z,101321.09
2022-11-01T16:38:38.196Z,101339.97
2022-11-01T16:41:41.136Z,101319.09
2022-11-01T16:44:39.696Z,101315.19
2022-11-01T16:47:37.089Z,101321.78
2022-11-01T16:50:34.485Z,101321.34
2022-11-01T16:53:33.659Z,101328.91
2022-11-01T16:56:37.333Z,101317.09
2022-11-01T16:59:36.863Z,101314.00
2022-11-01T17:02:34.930Z,101313.25
2022-11-01T17:05:32.636Z,101315.94
2022-11-01T17:08:29.810Z,101343.41
2022-11-01T17:11:27.525Z,101337.16
2022-11-01T17:14:24.503Z,101335.63
2022-11-01T17:17:24.648Z,101345.06
2022-11-01T17:20:26.472Z,101335.19
2022-11-01T17:23:24.016Z,101343.09
2022-11-01T17:26:23.773Z,101357.22
2022-11-01T17:29:21.148Z,101353.53
2022-11-01T17:32:18.941Z,101348.38
2022-11-01T17:35:16.517Z,101352.78
2022-11-01T17:38:32.049Z,101364.75
2022-11-01T17:41:29.215Z,101354.88
2022-11-01T17:44:26.652Z,101352.03
2022-11-01T17:47:23.193Z,101365.59
2022-11-01T17:50:20.284Z,101376.06
2022-11-01T17:53:17.536Z,101389.94
2022-11-01T17:56:14.445Z,101394.09
2022-11-01T17:59:11.119Z,101397.38
2022-11-01T18:02:09.968Z,101397.16
2022-11-01T18:05:08.740Z,101362.28
2022-11-01T18:08:14.682Z,101383.84
2022-11-01T18:11:13.392Z,101381.75
2022-11-01T18:14:37.019Z,101374.13
2022-11-01T18:17:56.722Z,101382.66
2022-11-01T18:21:31.860Z,101394.72
2022-11-01T18:24:50.437Z,101406.47
2022-11-01T18:27:47.309Z,101392.53
2022-11-01T18:30:51.429Z,101392.53
2022-11-01T18:34:20.735Z,101401.22
2022-11-01T18:37:19.015Z,101380.16
2022-11-01T18:40:24.677Z,101385.38
2022-11-01T18:43:21.682Z,101357.13
2022-11-01T18:46:25.803Z,101365.19
2022-11-01T18:49:27.284Z,101387.06
2022-11-01T18:52:24.603Z,101397.78
2022-11-01T18:55:21.937Z,101359.41
2022-11-01T18:58:24.770Z,101359.97
2022-11-01T19:01:32.045Z,101374.22
2022-11-01T19:04:30.672Z,101379.16
2022-11-01T19:07:39.353Z,101365.34
2022-11-01T19:10:42.364Z,101369.78
2022-11-01T19:13:39.531Z,101375.16
2022-11-01T19:16:36.998Z,101360.69
2022-11-01T19:19:34.784Z,101367.66
2022-11-01T19:22:39.085Z,101390.38
2022-11-01T19:25:36.533Z,101413.25
2022-11-01T19:28:38.466Z,101392.84
2022-11-01T19:31:38.860Z,101379.75
2022-11-01T19:34:37.520Z,101392.31
2022-11-01T19:37:40.960Z,101390.53
2022-11-01T19:40:40.319Z,101395.75
2022-11-01T19:43:37.693Z,101393.19
2022-11-01T19:46:35.185Z,101395.03
2022-11-01T19:49:32.348Z,101377.00
2022-11-01T19:52:35.604Z,101404.91
2022-11-01T19:55:51.073Z,101384.44
2022-11-01T19:58:53.748Z,101413.81
2022-11-01T20:01:50.497Z,101397.63
2022-11-01T20:04:51.846Z,101414.72
2022-11-01T20:07:49.948Z,101394.75
2022-11-01T20:10:47.764Z,101379.84
2022-11-01T20:13:44.988Z,101390.44
2022-11-01T20:16:42.456Z,101394.88
2022-11-01T20:19:39.289Z,101379.56
2022-11-01T20:22:37.690Z,101397.34
2022-11-01T20:25:34.485Z,101375.63
2022-11-01T20:28:31.886Z,101376.38
2022-11-01T20:31:28.801Z,101396.50
2022-11-01T20:34:27.499Z,101394.69
2022-11-01T20:37:29.210Z,101386.81
2022-11-01T20:40:26.737Z,101377.72
2022-11-01T20:43:23.992Z,101392.66
2022-11-01T20:46:21.590Z,101398.81
2022-11-01T20:49:18.404Z,101410.09
2022-11-01T20:55:32.356Z,101391.91
2022-11-01T20:58:29.773Z,101383.56
2022-11-01T21:01:26.959Z,101389.16
2022-11-01T21:04:25.155Z,101383.84
2022-11-01T21:07:22.526Z,101371.81
2022-11-01T21:10:27.100Z,101372.31
2022-11-01T21:13:30.084Z,101384.97
2022-11-01T21:16:29.458Z,101382.75
2022-11-01T21:19:26.556Z,101386.00
2022-11-01T21:22:23.934Z,101378.72
2022-11-01T21:25:21.642Z,101373.22
2022-11-01T21:28:35.516Z,101360.91
2022-11-01T21:31:33.423Z,101373.09
2022-11-01T21:34:30.969Z,101373.84
2022-11-01T21:37:29.188Z,101374.16
2022-11-01T21:40:28.505Z,101372.28
2022-11-01T21:43:30.908Z,101377.59
2022-11-01T21:46:28.311Z,101376.03
2022-11-01T21:49:29.417Z,101375.09
2022-11-01T21:52:26.318Z,101376.09
2022-11-01T21:55:23.593Z,101384.75
2022-11-01T21:58:21.969Z,101379.19
2022-11-01T22:01:18.550Z,101376.97
2022-11-01T22:04:15.749Z,101382.41
2022-11-01T22:07:12.730Z,101362.38
2022-11-01T22:10:09.662Z,101371.81
2022-11-01T22:13:06.936Z,101380.94
2022-11-01T22:16:04.967Z,101365.16
2022-11-01T22:19:02.656Z,101356.59
2022-11-01T22:21:59.529Z,101364.75
2022-11-01T22:24:56.516Z,101368.81
2022-11-01T22:27:53.420Z,101348.34
2022-11-01T22:30:50.494Z,101345.63
2022-11-01T22:33:49.649Z,101342.88
2022-11-01T22:36:49.564Z,101344.75
2022-11-01T22:39:52.035Z,101366.97
2022-11-01T22:42:53.169Z,101379.06
2022-11-01T22:45:54.304Z,101352.03
2022-11-01T22:48:52.912Z,101357.81
2022-11-01T22:51:51.268Z,101363.41
2022-11-01T22:54:48.831Z,101358.75
2022-11-01T22:58:12.892Z,101348.97
2022-11-01T23:01:21.488Z,101351.47
2022-11-01T23:04:23.727Z,101359.72
2022-11-01T23:07:24.895Z,101361.75
2022-11-01T23:10:31.574Z,101351.94
2022-11-01T23:13:50.671Z,101347.72
2022-11-01T23:16:47.962Z,101331.03
2022-11-01T23:19:44.741Z,101343.44
2022-11-01T23:22:41.772Z,101350.31
2022-11-01T23:25:38.776Z,101341.44
2022-11-01T23:28:37.188Z,101353.75
2022-11-01T23:31:34.509Z,101347.72
2022-11-01T23:34:31.448Z,101339.16
2022-11-01T23:37:28.687Z,101338.44
2022-11-01T23:40:29.373Z,101344.31
2022-11-01T23:43:34.022Z,101329.09
2022-11-01T23:46:31.681Z,101340.28
2022-11-01T23:49:30.094Z,101335.16
2022-11-01T23:52:40.596Z,101338.88
2022-11-01T23:55:39.326Z,101315.81
2022-11-01T23:58:36.546Z,101310.06
